Time;durP1;ratioP1;P1;durP2;ratioP2;P2;SDS_P1;SDS_P2;PMS_P1;PMS_P2;Temp;Humidity;BMP_temperature;BMP_pressure;BME280_temperature;BME280_humidity;BME280_pressure;Samples;Min_cycle;Max_cycle;Signal;HPM_P1;HPM_P2
2023/03/28 00:00:42;;;;;;;12.88;2.47;;;1.90;99.90;;;;;;5052723;28;20484;-63
2023/03/28 00:03:08;;;;;;;14.65;2.40;;;2.00;99.90;;;;;;5053467;28;20033;-64
2023/03/28 00:05:33;;;;;;;12.93;2.63;;;2.00;99.90;;;;;;5049836;28;20415;-64
2023/03/28 00:07:59;;;;;;;16.58;2.70;;;2.00;99.90;;;;;;5049889;28;20047;-64
2023/03/28 00:10:25;;;;;;;14.10;2.80;;;2.00;99.90;;;;;;5059736;28;20548;-64
2023/03/28 00:12:50;;;;;;;9.25;2.15;;;2.00;99.90;;;;;;5053832;28;20394;-64
2023/03/28 00:15:16;;;;;;;9.75;2.35;;;2.00;99.90;;;;;;5042730;28;20570;-64
2023/03/28 00:17:42;;;;;;;8.20;2.22;;;2.00;99.90;;;;;;5049791;28;20419;-64
2023/03/28 00:20:13;;;;;;;20.85;2.70;;;2.00;99.90;;;;;;5052988;28;20041;-64
2023/03/28 00:22:38;;;;;;;9.73;2.50;;;2.00;99.90;;;;;;5045769;28;20087;-64
2023/03/28 00:25:05;;;;;;;9.98;2.42;;;2.00;99.90;;;;;;5022546;28;20438;-64
2023/03/28 00:27:32;;;;;;;14.75;2.70;;;1.90;99.90;;;;;;5052694;28;20177;-64
2023/03/28 00:29:59;;;;;;;15.52;2.53;;;2.00;99.90;;;;;;5053021;28;20499;-64
2023/03/28 00:32:24;;;;;;;7.85;2.33;;;2.00;99.90;;;;;;5044295;28;20033;-64
2023/03/28 00:34:50;;;;;;;15.93;2.72;;;2.00;99.90;;;;;;5051593;28;20406;-64
2023/03/28 00:37:16;;;;;;;9.35;2.53;;;1.90;99.90;;;;;;5052962;28;20419;-64
2023/03/28 00:39:48;;;;;;;14.00;3.20;;;2.00;99.90;;;;;;5044052;28;20511;-64
2023/03/28 00:42:15;;;;;;;12.45;2.85;;;2.00;99.90;;;;;;5043580;28;20048;-64
2023/03/28 00:44:50;;;;;;;15.30;2.85;;;2.00;99.90;;;;;;5052492;28;20044;-64
2023/03/28 00:47:29;;;;;;;15.30;2.67;;;2.00;99.90;;;;;;5052203;28;20441;-64
2023/03/28 00:50:15;;;;;;;14.20;3.15;;;1.90;99.90;;;;;;5039636;28;20042;-64
2023/03/28 00:52:49;;;;;;;12.05;2.20;;;1.90;99.90;;;;;;5050076;28;20132;-64
2023/03/28 00:55:19;;;;;;;18.08;2.97;;;1.90;99.90;;;;;;5052706;28;20048;-64
2023/03/28 00:57:46;;;;;;;10.18;2.25;;;1.90;99.90;;;;;;5041454;28;20060;-64
2023/03/28 01:00:17;;;;;;;10.00;2.50;;;1.90;99.90;;;;;;5036627;28;20029;-64
2023/03/28 01:02:49;;;;;;;10.45;2.53;;;1.80;99.90;;;;;;5047847;28;20037;-64
2023/03/28 01:05:17;;;;;;;9.57;2.53;;;1.90;99.90;;;;;;5052287;28;20082;-64
2023/03/28 01:07:48;;;;;;;17.38;2.35;;;1.90;99.90;;;;;;5052027;28;20055;-64
2023/03/28 01:10:14;;;;;;;12.40;2.30;;;1.90;99.90;;;;;;5045876;28;20025;-64
2023/03/28 01:12:42;;;;;;;16.67;3.35;;;1.90;99.90;;;;;;5029304;28;20041;-64
2023/03/28 01:15:08;;;;;;;6.57;2.15;;;1.80;99.90;;;;;;5052185;28;20094;-64
2023/03/28 01:17:34;;;;;;;10.48;2.38;;;1.80;99.90;;;;;;5030771;28;20553;-64
2023/03/28 01:20:08;;;;;;;12.43;2.38;;;1.80;99.90;;;;;;5024153;28;20179;-64
2023/03/28 01:22:49;;;;;;;11.18;2.33;;;1.70;99.90;;;;;;5046868;28;20040;-63
2023/03/28 01:25:38;;;;;;;12.70;2.42;;;1.80;99.90;;;;;;5044988;28;20411;-64
2023/03/28 01:28:16;;;;;;;13.15;3.00;;;1.70;99.90;;;;;;5046951;28;20109;-64
2023/03/28 01:30:48;;;;;;;15.90;2.20;;;1.70;99.90;;;;;;5025232;28;20041;-64
2023/03/28 01:33:45;;;;;;;11.60;2.90;;;1.60;99.90;;;;;;5051250;28;20041;-64
2023/03/28 01:36:21;;;;;;;15.80;2.90;;;1.50;99.90;;;;;;5051762;28;20128;-64
2023/03/28 01:39:25;;;;;;;22.00;2.95;;;1.50;99.90;;;;;;5044440;28;20607;-64
2023/03/28 01:42:18;;;;;;;17.02;3.63;;;1.40;99.90;;;;;;5051554;28;20045;-64
2023/03/28 01:44:48;;;;;;;14.18;3.40;;;1.40;99.90;;;;;;5051798;28;20041;-64
2023/03/28 01:47:26;;;;;;;12.82;2.63;;;1.30;99.90;;;;;;5024108;28;20042;-64
2023/03/28 01:50:17;;;;;;;14.70;2.83;;;1.40;99.90;;;;;;5031058;28;20049;-64
2023/03/28 01:53:02;;;;;;;11.27;2.55;;;1.30;99.90;;;;;;5051156;28;20040;-64
2023/03/28 01:56:00;;;;;;;8.57;2.00;;;1.10;99.90;;;;;;5047247;28;20045;-64
2023/03/28 01:58:48;;;;;;;11.75;2.30;;;1.10;99.90;;;;;;5047160;28;20033;-63
2023/03/28 02:01:17;;;;;;;11.15;2.22;;;1.00;99.90;;;;;;5037701;28;20449;-64
2023/03/28 02:03:47;;;;;;;13.13;2.60;;;1.00;99.90;;;;;;5026021;28;20040;-64
2023/03/28 02:06:13;;;;;;;9.70;2.05;;;1.00;99.90;;;;;;5050844;28;20072;-64
2023/03/28 02:08:41;;;;;;;9.02;2.45;;;1.00;99.90;;;;;;5050395;28;20545;-64
2023/03/28 02:11:09;;;;;;;12.20;3.35;;;1.00;99.90;;;;;;5038110;28;20116;-64
2023/03/28 02:13:41;;;;;;;12.32;2.35;;;0.80;99.90;;;;;;5044590;28;20041;-64
2023/03/28 02:16:09;;;;;;;12.43;2.83;;;0.80;99.90;;;;;;5044753;28;20037;-64
2023/03/28 02:18:39;;;;;;;8.38;2.13;;;0.70;99.90;;;;;;5047417;28;20033;-64
2023/03/28 02:21:09;;;;;;;8.85;2.10;;;0.60;99.90;;;;;;5041310;28;20531;-64
2023/03/28 02:23:47;;;;;;;14.95;3.08;;;0.60;99.90;;;;;;5050889;28;20040;-64
2023/03/28 02:26:13;;;;;;;9.32;2.53;;;0.60;99.90;;;;;;5051506;28;20037;-64
2023/03/28 02:28:41;;;;;;;24.05;2.85;;;0.70;99.90;;;;;;5017986;28;20052;-64
2023/03/28 02:31:07;;;;;;;12.68;2.65;;;0.70;99.90;;;;;;5033018;28;20025;-64
2023/03/28 02:33:43;;;;;;;14.07;2.47;;;0.70;99.90;;;;;;5050724;28;20033;-64
2023/03/28 02:36:21;;;;;;;16.73;3.22;;;0.70;99.90;;;;;;5044647;28;20037;-64
2023/03/28 02:38:55;;;;;;;13.85;2.78;;;0.70;99.90;;;;;;5049166;28;20037;-64
2023/03/28 02:41:28;;;;;;;10.45;2.88;;;0.80;99.90;;;;;;5032979;28;20098;-64
2023/03/28 02:44:22;;;;;;;13.05;2.50;;;0.80;99.90;;;;;;5036020;28;20136;-63
2023/03/28 02:47:12;;;;;;;9.15;2.67;;;0.80;99.90;;;;;;5001514;28;20067;-64
2023/03/28 02:49:53;;;;;;;16.67;2.92;;;0.80;99.90;;;;;;5050757;28;20033;-64
2023/03/28 02:52:50;;;;;;;8.77;2.33;;;0.90;99.90;;;;;;5020587;28;20395;-64
2023/03/28 02:55:24;;;;;;;8.98;2.63;;;0.90;99.90;;;;;;5043963;28;20268;-64
2023/03/28 02:57:58;;;;;;;12.48;2.95;;;0.90;99.90;;;;;;5050447;28;20045;-64
2023/03/28 03:00:24;;;;;;;13.15;2.58;;;0.90;99.90;;;;;;5040554;28;20115;-64
2023/03/28 03:02:50;;;;;;;9.27;2.72;;;0.80;99.90;;;;;;5031519;28;20130;-64
2023/03/28 03:05:20;;;;;;;10.52;2.60;;;0.80;99.90;;;;;;5052145;28;20036;-64
2023/03/28 03:07:48;;;;;;;6.72;2.38;;;0.80;99.90;;;;;;5060098;28;20051;-64
2023/03/28 03:10:14;;;;;;;8.68;2.70;;;0.70;99.90;;;;;;5049711;28;20041;-64
2023/03/28 03:12:40;;;;;;;10.88;2.80;;;0.70;99.90;;;;;;5062186;28;20033;-64
2023/03/28 03:15:07;;;;;;;10.88;2.58;;;0.70;99.90;;;;;;5036475;28;20069;-64
2023/03/28 03:17:32;;;;;;;6.72;2.30;;;0.70;99.90;;;;;;5025355;28;20046;-64
2023/03/28 03:19:58;;;;;;;15.52;2.78;;;0.60;99.90;;;;;;5052744;28;20044;-64
2023/03/28 03:22:24;;;;;;;9.60;2.38;;;0.60;99.90;;;;;;5065310;28;20043;-64
2023/03/28 03:24:50;;;;;;;13.18;3.60;;;0.40;99.90;;;;;;5050265;28;20459;-64
2023/03/28 03:27:19;;;;;;;11.00;2.75;;;0.40;99.90;;;;;;5048972;28;20044;-64
2023/03/28 03:29:47;;;;;;;7.80;2.35;;;0.30;99.90;;;;;;5053628;28;20033;-63
2023/03/28 03:32:13;;;;;;;9.55;2.30;;;0.20;99.90;;;;;;5042677;28;20071;-64
2023/03/28 03:34:41;;;;;;;11.02;2.63;;;0.20;99.90;;;;;;5036150;28;20036;-64
2023/03/28 03:37:10;;;;;;;9.10;2.20;;;0.10;99.90;;;;;;5053142;28;20454;-64
2023/03/28 03:39:36;;;;;;;7.80;2.22;;;0.10;99.90;;;;;;5053620;28;20029;-64
2023/03/28 03:42:02;;;;;;;10.35;2.55;;;0.20;99.90;;;;;;5053246;28;20040;-64
2023/03/28 03:44:28;;;;;;;10.40;2.97;;;0.20;99.90;;;;;;5046488;28;20029;-64
2023/03/28 03:46:54;;;;;;;16.08;2.83;;;0.20;99.90;;;;;;5030402;28;20512;-64
2023/03/28 03:49:19;;;;;;;9.40;2.38;;;0.30;99.90;;;;;;5052619;28;20041;-64
2023/03/28 03:51:45;;;;;;;9.82;2.28;;;0.30;99.90;;;;;;5044847;28;20038;-64
2023/03/28 03:54:10;;;;;;;12.48;3.10;;;0.30;99.90;;;;;;5052286;28;20047;-64
2023/03/28 03:56:36;;;;;;;9.35;2.67;;;0.30;99.90;;;;;;5035493;28;20077;-64
2023/03/28 03:59:02;;;;;;;13.65;2.92;;;0.30;99.90;;;;;;5046484;28;20371;-64
2023/03/28 04:01:28;;;;;;;7.60;2.42;;;0.30;99.90;;;;;;5047296;28;20032;-64
2023/03/28 04:03:55;;;;;;;8.77;2.75;;;0.20;99.90;;;;;;5052891;28;20059;-64
2023/03/28 04:06:21;;;;;;;8.13;2.38;;;0.20;99.90;;;;;;5053696;28;20178;-64
2023/03/28 04:08:46;;;;;;;12.88;2.65;;;0.10;99.90;;;;;;5042869;28;20076;-63
2023/03/28 04:11:12;;;;;;;8.32;2.67;;;0.10;99.90;;;;;;5045975;28;20071;-64
2023/03/28 04:13:38;;;;;;;7.35;2.30;;;0.10;99.90;;;;;;5059098;28;20486;-64
2023/03/28 04:16:04;;;;;;;8.27;2.53;;;0.00;99.90;;;;;;5042423;28;20065;-64
2023/03/28 04:18:29;;;;;;;9.77;2.45;;;0.00;99.90;;;;;;5058199;28;20024;-64
2023/03/28 04:20:58;;;;;;;9.15;2.72;;;0.00;99.90;;;;;;5055256;28;20047;-64
2023/03/28 04:23:27;;;;;;;12.13;2.30;;;-0.10;99.90;;;;;;5036537;28;20037;-64
2023/03/28 04:25:57;;;;;;;14.68;2.78;;;-0.10;99.90;;;;;;5041275;28;20037;-64
2023/03/28 04:28:24;;;;;;;7.47;2.85;;;-0.10;99.90;;;;;;5034414;28;20049;-64
2023/03/28 04:30:53;;;;;;;9.55;2.45;;;-0.10;99.90;;;;;;5053248;28;20037;-64
2023/03/28 04:33:24;;;;;;;9.20;2.40;;;-0.10;99.90;;;;;;5030636;28;20380;-64
2023/03/28 04:36:04;;;;;;;11.07;2.10;;;-0.10;99.90;;;;;;5032457;28;20131;-63
2023/03/28 04:38:34;;;;;;;11.53;2.37;;;-0.10;99.90;;;;;;5051801;28;20513;-64
2023/03/28 04:41:01;;;;;;;10.48;3.00;;;0.10;99.90;;;;;;5047533;28;20037;-64
2023/03/28 04:43:27;;;;;;;10.95;2.33;;;0.10;99.90;;;;;;5043153;28;20025;-64
2023/03/28 04:45:53;;;;;;;17.67;3.22;;;0.20;99.90;;;;;;5050680;28;20076;-64
2023/03/28 04:48:19;;;;;;;14.05;2.90;;;0.20;99.90;;;;;;5052742;28;20462;-64
2023/03/28 04:50:45;;;;;;;10.63;2.60;;;0.20;99.90;;;;;;5027252;28;20509;-64
2023/03/28 04:53:12;;;;;;;11.23;2.47;;;0.20;99.90;;;;;;5045469;28;20071;-64
2023/03/28 04:55:38;;;;;;;7.50;2.28;;;0.20;99.90;;;;;;5051361;28;20082;-63
2023/03/28 04:58:04;;;;;;;12.60;2.90;;;0.20;99.90;;;;;;5044655;28;20037;-63
2023/03/28 05:00:31;;;;;;;8.57;2.95;;;0.20;99.90;;;;;;5039970;28;20032;-63
2023/03/28 05:02:58;;;;;;;12.70;3.20;;;0.20;99.90;;;;;;5042956;28;20651;-63
2023/03/28 05:05:24;;;;;;;10.45;2.83;;;0.30;99.90;;;;;;5037802;28;20048;-63
2023/03/28 05:07:50;;;;;;;10.93;2.97;;;0.30;99.90;;;;;;5013852;28;20078;-64
2023/03/28 05:10:16;;;;;;;9.90;2.80;;;0.40;99.90;;;;;;5051006;28;20032;-64
2023/03/28 05:12:41;;;;;;;10.38;2.72;;;0.50;99.90;;;;;;5059300;28;20029;-64
2023/03/28 05:15:07;;;;;;;9.45;3.20;;;0.50;99.90;;;;;;5039348;28;20442;-63
2023/03/28 05:17:33;;;;;;;15.13;3.13;;;0.60;99.90;;;;;;5056503;28;20052;-64
2023/03/28 05:19:58;;;;;;;13.02;3.10;;;0.60;99.90;;;;;;5061049;28;20514;-63
2023/03/28 05:22:24;;;;;;;8.85;2.92;;;0.70;99.90;;;;;;5060826;28;20033;-63
2023/03/28 05:24:50;;;;;;;8.32;3.13;;;0.70;99.90;;;;;;5053257;28;20102;-63
2023/03/28 05:27:16;;;;;;;12.00;2.85;;;0.80;99.90;;;;;;5060731;28;20036;-64
2023/03/28 05:29:42;;;;;;;12.15;3.10;;;0.80;99.90;;;;;;5060171;28;20116;-64
2023/03/28 05:32:08;;;;;;;10.88;3.20;;;0.90;99.90;;;;;;5041481;28;20152;-63
2023/03/28 05:34:34;;;;;;;10.60;3.13;;;1.00;99.90;;;;;;5057344;28;20040;-64
2023/03/28 05:37:00;;;;;;;7.22;2.67;;;1.10;99.90;;;;;;5059193;28;20045;-64
2023/03/28 05:39:26;;;;;;;13.73;2.95;;;1.10;99.90;;;;;;5058327;28;20090;-63
2023/03/28 05:41:52;;;;;;;9.52;3.50;;;1.10;99.90;;;;;;5046668;28;20451;-64
2023/03/28 05:44:18;;;;;;;8.65;3.10;;;1.10;99.90;;;;;;5052193;28;20043;-64
2023/03/28 05:46:43;;;;;;;13.30;3.88;;;1.10;99.90;;;;;;5050827;28;20042;-65
2023/03/28 05:49:10;;;;;;;12.88;3.38;;;1.10;99.90;;;;;;5047530;28;20394;-64
2023/03/28 05:51:36;;;;;;;17.77;3.80;;;1.00;99.90;;;;;;5048381;28;20389;-64
2023/03/28 05:54:02;;;;;;;10.77;3.78;;;1.00;99.90;;;;;;5047295;28;20082;-64
2023/03/28 05:56:27;;;;;;;12.68;3.40;;;1.00;99.90;;;;;;5057369;28;20043;-64
2023/03/28 05:58:53;;;;;;;13.57;3.65;;;1.00;99.90;;;;;;5051360;28;20048;-65
2023/03/28 06:01:22;;;;;;;13.68;3.40;;;1.00;99.90;;;;;;5046482;28;20427;-65
2023/03/28 06:03:48;;;;;;;11.88;3.47;;;1.00;99.90;;;;;;5038286;28;20056;-65
2023/03/28 06:06:14;;;;;;;16.75;3.90;;;1.00;99.90;;;;;;5050977;28;20495;-65
2023/03/28 06:08:40;;;;;;;13.75;3.80;;;1.10;99.90;;;;;;5028137;28;20041;-64
2023/03/28 06:11:06;;;;;;;10.82;3.17;;;1.20;99.90;;;;;;5037390;28;20044;-65
2023/03/28 06:13:32;;;;;;;11.93;2.95;;;1.20;99.90;;;;;;5051174;28;20388;-65
2023/03/28 06:15:57;;;;;;;12.80;3.58;;;1.40;99.90;;;;;;5033651;28;20487;-65
2023/03/28 06:18:23;;;;;;;13.30;3.17;;;1.50;99.90;;;;;;5039603;28;20076;-65
2023/03/28 06:20:49;;;;;;;12.02;3.03;;;1.60;99.90;;;;;;5042048;28;20045;-65
2023/03/28 06:23:14;;;;;;;18.70;3.70;;;1.60;99.90;;;;;;5050760;28;20037;-65
2023/03/28 06:25:40;;;;;;;12.05;3.05;;;1.70;99.90;;;;;;5043227;28;20041;-65
2023/03/28 06:28:06;;;;;;;15.30;3.83;;;1.70;99.90;;;;;;5038787;28;20028;-65
2023/03/28 06:30:31;;;;;;;13.23;3.47;;;1.80;99.90;;;;;;5051061;28;20040;-65
2023/03/28 06:32:57;;;;;;;12.27;3.33;;;1.90;99.90;;;;;;5048632;28;20037;-65
2023/03/28 06:35:22;;;;;;;10.57;3.10;;;1.90;99.90;;;;;;5018851;28;20041;-65
2023/03/28 06:37:48;;;;;;;8.60;3.10;;;2.00;99.90;;;;;;5048209;28;20045;-65
2023/03/28 06:40:13;;;;;;;14.55;3.83;;;2.10;99.90;;;;;;5034899;28;20387;-66
2023/03/28 06:42:39;;;;;;;12.52;3.50;;;2.10;99.90;;;;;;5051222;28;20514;-66
2023/03/28 06:45:05;;;;;;;12.07;3.80;;;2.10;99.90;;;;;;5020295;28;20494;-66
2023/03/28 06:47:31;;;;;;;13.20;3.22;;;2.10;99.90;;;;;;5062911;28;20029;-65
2023/03/28 06:49:56;;;;;;;7.32;3.20;;;2.10;99.90;;;;;;5061367;28;20518;-66
2023/03/28 06:52:22;;;;;;;13.50;3.10;;;2.20;99.90;;;;;;5043698;28;20037;-65
2023/03/28 06:54:48;;;;;;;13.15;3.55;;;2.30;99.90;;;;;;5060242;28;20372;-66
2023/03/28 06:57:14;;;;;;;8.77;4.43;;;2.40;99.90;;;;;;5063595;28;20045;-66
2023/03/28 06:59:40;;;;;;;12.02;3.60;;;2.60;99.90;;;;;;5061924;28;20028;-69
2023/03/28 07:02:08;;;;;;;11.38;4.07;;;2.80;99.90;;;;;;5060106;28;20044;-66
2023/03/28 07:04:34;;;;;;;17.58;3.88;;;3.00;99.90;;;;;;5066040;28;20064;-66
2023/03/28 07:06:59;;;;;;;12.93;3.92;;;3.10;99.90;;;;;;5054483;28;20072;-66
2023/03/28 07:09:26;;;;;;;18.15;4.13;;;3.20;99.90;;;;;;5046940;28;20033;-66
2023/03/28 07:11:51;;;;;;;12.85;4.40;;;3.30;99.90;;;;;;5066498;28;20044;-66
2023/03/28 07:14:17;;;;;;;13.55;4.40;;;3.30;99.90;;;;;;5054872;28;20029;-66
2023/03/28 07:16:43;;;;;;;13.27;3.65;;;3.30;99.90;;;;;;5045602;28;20044;-66
2023/03/28 07:19:09;;;;;;;12.63;3.65;;;3.40;99.90;;;;;;5050115;28;20045;-66
2023/03/28 07:21:35;;;;;;;9.95;3.70;;;3.50;99.90;;;;;;5054265;28;20041;-66
2023/03/28 07:24:01;;;;;;;13.13;3.70;;;3.60;99.90;;;;;;5054710;28;20202;-66
2023/03/28 07:26:26;;;;;;;8.43;3.53;;;3.70;99.90;;;;;;5045307;28;20116;-66
2023/03/28 07:28:55;;;;;;;10.00;3.72;;;3.70;99.90;;;;;;5049116;28;20036;-66
2023/03/28 07:31:20;;;;;;;15.60;3.97;;;3.90;99.90;;;;;;5053283;28;20086;-66
2023/03/28 07:33:49;;;;;;;16.05;4.30;;;4.10;99.90;;;;;;5036880;28;20041;-66
2023/03/28 07:36:18;;;;;;;9.48;4.20;;;4.20;99.90;;;;;;5053526;28;20052;-66
2023/03/28 07:38:44;;;;;;;13.05;3.80;;;4.20;99.90;;;;;;5048520;28;20037;-66
2023/03/28 07:41:10;;;;;;;12.77;4.30;;;4.30;99.90;;;;;;5044942;28;20399;-65
2023/03/28 07:43:38;;;;;;;11.77;3.85;;;4.40;99.90;;;;;;5048727;28;20041;-65
2023/03/28 07:46:06;;;;;;;10.55;3.47;;;4.50;99.90;;;;;;5052384;28;20506;-68
2023/03/28 07:48:34;;;;;;;12.13;4.00;;;4.50;99.90;;;;;;5049321;28;20403;-66
2023/03/28 07:51:00;;;;;;;11.30;3.55;;;4.50;99.90;;;;;;5026226;28;20742;-66
2023/03/28 07:53:26;;;;;;;9.38;4.07;;;4.50;99.90;;;;;;5024324;28;20041;-65
2023/03/28 07:55:52;;;;;;;9.52;4.28;;;4.50;99.90;;;;;;5024955;28;20415;-64
2023/03/28 07:58:17;;;;;;;7.65;3.90;;;4.60;99.90;;;;;;5043981;28;20127;-64
2023/03/28 08:00:44;;;;;;;10.65;4.43;;;4.70;99.90;;;;;;5042354;28;20034;-65
2023/03/28 08:03:13;;;;;;;9.98;3.78;;;4.80;99.90;;;;;;5053306;28;20056;-65
2023/03/28 08:05:39;;;;;;;11.45;3.92;;;4.80;99.90;;;;;;5053649;28;20059;-65
2023/03/28 08:08:06;;;;;;;12.52;3.67;;;4.80;99.90;;;;;;5040740;28;20387;-65
2023/03/28 08:10:32;;;;;;;9.10;3.40;;;4.80;99.90;;;;;;5060534;28;20040;-65
2023/03/28 08:12:57;;;;;;;14.80;3.75;;;4.90;99.90;;;;;;5054319;28;20043;-65
2023/03/28 08:15:23;;;;;;;8.55;3.63;;;4.90;99.90;;;;;;5053313;28;20041;-65
2023/03/28 08:17:49;;;;;;;6.90;3.50;;;5.00;99.90;;;;;;5047686;28;20041;-65
2023/03/28 08:20:14;;;;;;;10.65;3.90;;;5.10;99.90;;;;;;5038296;28;20029;-65
2023/03/28 08:22:40;;;;;;;13.07;4.00;;;5.10;99.90;;;;;;5028719;28;20043;-65
2023/03/28 08:25:06;;;;;;;11.93;3.92;;;5.20;99.90;;;;;;5030612;28;20059;-65
2023/03/28 08:27:32;;;;;;;6.43;2.88;;;5.30;99.90;;;;;;5052783;28;20037;-65
2023/03/28 08:29:58;;;;;;;8.90;3.20;;;5.40;99.90;;;;;;5035407;28;20131;-65
2023/03/28 08:32:24;;;;;;;10.90;3.35;;;5.40;99.90;;;;;;5046343;28;20131;-65
2023/03/28 08:34:50;;;;;;;9.05;3.30;;;5.50;99.90;;;;;;5046885;28;20433;-65
2023/03/28 08:37:15;;;;;;;6.90;2.92;;;5.50;99.90;;;;;;5053040;28;20099;-65
2023/03/28 08:39:41;;;;;;;12.82;3.60;;;5.50;99.90;;;;;;5045913;28;20033;-65
2023/03/28 08:42:35;;;;;;;13.23;4.07;;;5.60;99.90;;;;;;5044308;28;20476;-65
2023/03/28 08:45:11;;;;;;;8.48;3.30;;;5.70;99.90;;;;;;5047158;28;20037;-65
2023/03/28 08:48:18;;;;;;;7.70;3.30;;;5.80;99.90;;;;;;5034920;28;20068;-65
2023/03/28 08:50:53;;;;;;;8.35;3.40;;;5.90;99.90;;;;;;5013153;28;20049;-65
2023/03/28 08:53:25;;;;;;;12.18;3.60;;;5.90;99.90;;;;;;5045707;28;20509;-65
2023/03/28 08:55:52;;;;;;;11.93;3.40;;;5.90;99.90;;;;;;5034240;28;20099;-65
2023/03/28 08:58:20;;;;;;;13.30;3.47;;;6.10;99.90;;;;;;5034135;28;20032;-65
2023/03/28 09:00:50;;;;;;;7.93;3.63;;;6.10;99.90;;;;;;5047963;28;20029;-65
2023/03/28 09:03:20;;;;;;;10.05;3.47;;;6.20;99.90;;;;;;5049577;28;20510;-65
2023/03/28 09:05:51;;;;;;;6.05;2.70;;;6.30;99.90;;;;;;5020040;28;20560;-64
2023/03/28 09:08:35;;;;;;;8.30;3.05;;;6.40;99.90;;;;;;5043603;28;20032;-64
2023/03/28 09:11:09;;;;;;;5.65;2.50;;;6.60;99.90;;;;;;5032621;28;20135;-65
2023/03/28 09:14:03;;;;;;;7.20;2.40;;;6.70;99.90;;;;;;5020801;28;20068;-65
2023/03/28 09:16:40;;;;;;;6.32;2.42;;;6.80;99.90;;;;;;5042386;28;20447;-65
2023/03/28 09:19:27;;;;;;;5.45;1.70;;;7.00;99.90;;;;;;5042934;28;20087;-65
2023/03/28 09:22:27;;;;;;;6.40;2.00;;;7.00;99.90;;;;;;5051790;28;20044;-65
2023/03/28 09:25:23;;;;;;;3.08;1.60;;;7.00;99.90;;;;;;5044123;28;20488;-65
2023/03/28 09:28:26;;;;;;;4.68;1.90;;;6.90;99.90;;;;;;5051826;28;20120;-65
2023/03/28 09:30:54;;;;;;;8.40;2.03;;;6.70;99.90;;;;;;5039131;28;20049;-65
2023/03/28 09:33:29;;;;;;;3.95;1.23;;;7.10;99.90;;;;;;5027226;28;20514;-65
2023/03/28 09:35:58;;;;;;;7.10;2.17;;;7.20;99.90;;;;;;5053303;28;20048;-65
2023/03/28 09:38:40;;;;;;;3.58;1.60;;;7.20;99.90;;;;;;5063257;28;20029;-64
2023/03/28 09:41:15;;;;;;;6.53;1.80;;;7.20;99.90;;;;;;5049090;28;20147;-65
2023/03/28 09:43:48;;;;;;;2.50;1.35;;;7.30;99.90;;;;;;5045444;28;20045;-65
2023/03/28 09:46:23;;;;;;;2.45;1.40;;;7.10;99.90;;;;;;5051851;28;20051;-65
2023/03/28 09:48:49;;;;;;;6.78;1.77;;;7.00;99.90;;;;;;5047114;28;20049;-65
2023/03/28 09:51:17;;;;;;;3.38;1.52;;;7.00;99.90;;;;;;5031923;28;20403;-65
2023/03/28 09:53:43;;;;;;;3.97;1.60;;;7.00;99.90;;;;;;5052771;28;20056;-64
2023/03/28 09:56:25;;;;;;;6.80;1.65;;;7.10;99.90;;;;;;5051820;28;20434;-65
2023/03/28 09:59:02;;;;;;;3.60;1.73;;;7.20;99.90;;;;;;5044296;28;20042;-65
2023/03/28 10:01:49;;;;;;;4.80;1.77;;;7.30;99.90;;;;;;5045869;28;20033;-65
2023/03/28 10:04:25;;;;;;;4.13;1.67;;;7.40;99.90;;;;;;5044654;28;20084;-65
2023/03/28 10:06:52;;;;;;;6.13;1.85;;;7.50;99.90;;;;;;5047377;28;20530;-65
2023/03/28 10:09:20;;;;;;;6.63;1.70;;;7.40;99.90;;;;;;5016727;28;20128;-65
2023/03/28 10:11:58;;;;;;;4.93;1.92;;;7.30;99.90;;;;;;5048992;28;20395;-65
2023/03/28 10:14:35;;;;;;;6.10;1.60;;;7.40;99.90;;;;;;5070706;28;20037;-65
2023/03/28 10:17:02;;;;;;;4.22;1.85;;;7.50;99.90;;;;;;5033005;28;20168;-65
2023/03/28 10:19:34;;;;;;;4.25;2.00;;;7.60;99.90;;;;;;5037974;28;20392;-65
2023/03/28 10:22:06;;;;;;;3.30;1.80;;;7.60;99.90;;;;;;5033149;28;20048;-65
2023/03/28 10:24:33;;;;;;;5.07;1.95;;;7.70;99.90;;;;;;5042247;28;20030;-64
2023/03/28 10:27:07;;;;;;;4.05;1.95;;;7.90;99.90;;;;;;5049172;28;20048;-65
2023/03/28 10:29:33;;;;;;;6.07;1.80;;;7.90;99.90;;;;;;5051042;28;20052;-64
2023/03/28 10:31:59;;;;;;;3.58;1.98;;;8.00;99.90;;;;;;5051172;28;20041;-65
2023/03/28 10:34:30;;;;;;;5.88;2.45;;;7.80;99.90;;;;;;5037903;28;20044;-65
2023/03/28 10:36:56;;;;;;;5.25;2.15;;;7.70;99.90;;;;;;5043675;28;20125;-65
2023/03/28 10:39:25;;;;;;;5.75;2.00;;;7.80;99.90;;;;;;5064995;28;20534;-65
2023/03/28 10:42:01;;;;;;;3.67;1.80;;;7.90;99.90;;;;;;5042124;28;20045;-65
2023/03/28 10:44:30;;;;;;;6.93;1.95;;;7.80;99.90;;;;;;5050641;28;20061;-65
2023/03/28 10:47:02;;;;;;;6.40;1.95;;;8.00;99.90;;;;;;5039864;28;20044;-65
2023/03/28 10:49:37;;;;;;;9.25;2.60;;;7.90;99.90;;;;;;5044658;28;20048;-65
2023/03/28 10:52:28;;;;;;;5.20;2.03;;;8.20;99.90;;;;;;5054285;28;20403;-65
2023/03/28 10:55:16;;;;;;;6.25;2.13;;;8.00;98.80;;;;;;5044777;28;20124;-65
2023/03/28 10:58:01;;;;;;;4.68;2.50;;;7.90;99.90;;;;;;5046461;28;20173;-65
2023/03/28 11:00:36;;;;;;;7.53;2.50;;;7.80;99.40;;;;;;5021575;28;20094;-65
2023/03/28 11:03:12;;;;;;;4.13;2.35;;;7.80;99.60;;;;;;5054614;28;20479;-65
2023/03/28 11:05:52;;;;;;;4.95;2.00;;;7.80;99.40;;;;;;5051178;28;20507;-65
2023/03/28 11:08:34;;;;;;;6.28;2.25;;;7.80;99.90;;;;;;5041428;28;20029;-65
2023/03/28 11:11:13;;;;;;;7.53;3.08;;;8.00;99.90;;;;;;5050025;28;20372;-65
2023/03/28 11:14:04;;;;;;;3.63;1.90;;;8.20;99.90;;;;;;5046971;28;20029;-64
2023/03/28 11:16:56;;;;;;;5.65;2.17;;;8.60;99.90;;;;;;5046211;28;20109;-65
2023/03/28 11:19:55;;;;;;;7.15;2.60;;;8.60;99.30;;;;;;5058594;28;20053;-65
2023/03/28 11:22:36;;;;;;;4.80;2.28;;;8.50;99.20;;;;;;5058209;28;20033;-65
2023/03/28 11:25:19;;;;;;;6.65;2.05;;;8.40;98.60;;;;;;5041659;28;20036;-65
2023/03/28 11:27:56;;;;;;;17.67;2.85;;;8.30;98.70;;;;;;5054063;28;20037;-65
2023/03/28 11:30:31;;;;;;;10.45;2.90;;;8.30;98.50;;;;;;5050822;28;20032;-65
2023/03/28 11:33:07;;;;;;;6.90;2.58;;;8.30;97.30;;;;;;5041430;28;20440;-65
2023/03/28 11:35:55;;;;;;;6.93;2.63;;;8.50;99.90;;;;;;5061493;28;20060;-65
2023/03/28 11:38:32;;;;;;;6.35;2.47;;;8.60;99.90;;;;;;5069794;28;20037;-65
2023/03/28 11:41:00;;;;;;;4.43;2.30;;;8.60;98.50;;;;;;5049179;28;20033;-65
2023/03/28 11:43:31;;;;;;;7.38;2.30;;;8.50;99.30;;;;;;5053713;28;20036;-64
2023/03/28 11:46:01;;;;;;;;;;;8.50;99.90;;;;;;5055143;28;20099;-64
2023/03/28 11:48:45;;;;;;;5.35;2.30;;;8.70;99.90;;;;;;5045575;28;20398;-64
2023/03/28 11:51:21;;;;;;;5.35;2.00;;;8.50;96.60;;;;;;5031680;28;20036;-64
2023/03/28 11:53:47;;;;;;;5.93;2.40;;;8.70;98.20;;;;;;5053217;28;20514;-64
2023/03/28 11:56:39;;;;;;;5.15;2.22;;;8.70;99.90;;;;;;5053692;28;20045;-64
2023/03/28 11:59:21;;;;;;;7.72;2.38;;;8.80;98.40;;;;;;5038603;28;20043;-64
2023/03/28 12:01:53;;;;;;;3.95;2.40;;;8.70;97.60;;;;;;5053407;28;20480;-64
2023/03/28 12:04:24;;;;;;;7.35;2.40;;;8.80;99.90;;;;;;5065560;28;20035;-64
2023/03/28 12:07:07;;;;;;;5.00;2.20;;;9.00;99.60;;;;;;5050564;28;20383;-64
2023/03/28 12:10:23;;;;;;;6.18;2.60;;;8.60;95.60;;;;;;5048860;28;20037;-64
2023/03/28 12:13:09;;;;;;;6.47;2.75;;;8.90;99.20;;;;;;4955042;28;20111;-64
2023/03/28 12:15:55;;;;;;;7.40;2.50;;;9.00;98.00;;;;;;5031830;28;20064;-64
2023/03/28 12:18:42;;;;;;;8.73;2.85;;;9.00;98.10;;;;;;5046574;28;20039;-64
2023/03/28 12:21:26;;;;;;;5.85;2.65;;;9.10;98.80;;;;;;5057120;28;20487;-64
2023/03/28 12:23:58;;;;;;;9.50;3.50;;;9.40;99.20;;;;;;5054988;28;20590;-64
2023/03/28 12:26:51;;;;;;;9.02;3.30;;;9.80;99.90;;;;;;5048088;28;20036;-64
2023/03/28 12:29:31;;;;;;;7.72;2.80;;;9.90;97.60;;;;;;5046203;28;20045;-64
2023/03/28 12:32:23;;;;;;;6.97;3.20;;;10.00;99.60;;;;;;5053101;28;20411;-64
2023/03/28 12:34:58;;;;;;;8.25;3.15;;;10.20;99.60;;;;;;5024314;28;20044;-64
2023/03/28 12:37:42;;;;;;;7.70;3.50;;;9.80;95.20;;;;;;5054115;28;20087;-64
2023/03/28 12:40:23;;;;;;;9.73;3.50;;;10.10;99.10;;;;;;5049313;28;20040;-64
2023/03/28 12:42:50;;;;;;;;;;;10.30;99.90;;;;;;5051808;28;20116;-64
2023/03/28 12:45:27;;;;;;;7.15;3.53;;;10.00;95.30;;;;;;5052892;28;19959;-64
2023/03/28 12:47:58;;;;;;;7.00;2.88;;;9.90;97.40;;;;;;5052730;28;20051;-64
2023/03/28 12:50:24;;;;;;;4.47;2.92;;;9.60;95.50;;;;;;5041567;28;20044;-64
2023/03/28 12:52:50;;;;;;;8.02;3.15;;;9.70;97.50;;;;;;5047482;28;20041;-64
2023/03/28 12:55:24;;;;;;;5.05;2.63;;;9.70;94.30;;;;;;5052899;28;20152;-64
2023/03/28 12:57:51;;;;;;;5.82;2.47;;;9.40;94.00;;;;;;5023438;28;20099;-64
2023/03/28 13:00:23;;;;;;;6.55;2.63;;;9.30;93.40;;;;;;5052065;28;20075;-64
2023/03/28 13:03:03;;;;;;;6.93;2.85;;;9.30;94.50;;;;;;5070008;28;20037;-64
2023/03/28 13:05:48;;;;;;;5.32;3.10;;;9.30;94.50;;;;;;5064671;28;20413;-64
2023/03/28 13:08:25;;;;;;;6.03;3.33;;;9.50;96.80;;;;;;5049671;28;20069;-64
2023/03/28 13:11:13;;;;;;;8.38;3.67;;;9.50;95.90;;;;;;5052231;28;20045;-64
2023/03/28 13:13:55;;;;;;;5.63;3.80;;;9.40;94.40;;;;;;5046939;28;20128;-64
2023/03/28 13:16:24;;;;;;;7.97;3.90;;;9.60;96.70;;;;;;5046441;28;20045;-64